Aviation Digital Data Service (ADDS)

Output produced by METARs form (0631 UTC 23 February 2018)
found at http://aviationweather.gov/adds/metars/
 
KEKN 230540Z 2306/2406 13003KT 4SM BR SCT003 OVC040 
     TEMPO 2306/2307 2SM BR OVC004 
     FM231400 17005KT P6SM BKN035 
     FM231500 18006KT P6SM BKN025 
     FM231800 22008KT P6SM SCT035 BKN200 
     FM232100 24009G17KT P6SM OVC040 
     FM240200 23005KT P6SM BKN025 
     FM240300 23005KT P6SM BKN008 
     FM240500 25005KT 4SM BR OVC005